RYR947 LOWW-EPKK
Flight info
| Callsign | RYR947 |
|---|---|
| Flight time | 0h 40m |
| Altitude | 29000 |
| Route | LEDVA DCT NETIR |
| Aircraft | A320/M-SDE3FGHIRWY/LB1 |
Departure
| Time | 2026-05-07 20:26 |
|---|---|
| Airport | Vienna International Airport (LOWW) |
Arrival
| Time | 2026-05-07 21:07 |
|---|---|
| Airport | Kraków John Paul II International Airport (EPKK) |
| Time | Latitude | Longitude | Altitude | Speed | Heading |
|---|---|---|---|---|---|
| 2026-05-07 19:58 | 48.12120 | 16.55508 | 625 ft | 0 kts | 296° |
| 2026-05-07 20:19 | 48.12120 | 16.55506 | 583 ft | 1 kts | 296° |
| 2026-05-07 20:20 | 48.12130 | 16.55474 | 618 ft | 5 kts | 288° |
| 2026-05-07 20:20 | 48.12105 | 16.55416 | 616 ft | 9 kts | 207° |
| 2026-05-07 20:20 | 48.12041 | 16.55372 | 610 ft | 11 kts | 205° |
| 2026-05-07 20:20 | 48.11960 | 16.55323 | 610 ft | 14 kts | 185° |
| 2026-05-07 20:21 | 48.11895 | 16.55429 | 614 ft | 16 kts | 109° |
| 2026-05-07 20:21 | 48.11852 | 16.55578 | 612 ft | 16 kts | 115° |
| 2026-05-07 20:21 | 48.11804 | 16.55727 | 612 ft | 16 kts | 116° |
| 2026-05-07 20:21 | 48.11751 | 16.55887 | 616 ft | 18 kts | 116° |
| 2026-05-07 20:22 | 48.11691 | 16.56069 | 614 ft | 21 kts | 114° |
| 2026-05-07 20:22 | 48.11627 | 16.56274 | 618 ft | 23 kts | 116° |
| 2026-05-07 20:22 | 48.11552 | 16.56498 | 621 ft | 25 kts | 117° |
| 2026-05-07 20:22 | 48.11478 | 16.56730 | 616 ft | 24 kts | 115° |
| 2026-05-07 20:23 | 48.11402 | 16.56961 | 615 ft | 24 kts | 117° |
| 2026-05-07 20:23 | 48.11326 | 16.57189 | 615 ft | 25 kts | 117° |
| 2026-05-07 20:23 | 48.11252 | 16.57411 | 622 ft | 24 kts | 116° |
| 2026-05-07 20:23 | 48.11192 | 16.57598 | 617 ft | 14 kts | 114° |
| 2026-05-07 20:24 | 48.11154 | 16.57726 | 621 ft | 12 kts | 114° |
| 2026-05-07 20:24 | 48.11121 | 16.57834 | 614 ft | 9 kts | 115° |
| 2026-05-07 20:24 | 48.11095 | 16.57908 | 618 ft | 7 kts | 117° |
| 2026-05-07 20:24 | 48.11071 | 16.57981 | 618 ft | 10 kts | 115° |
| 2026-05-07 20:25 | 48.11030 | 16.58097 | 614 ft | 15 kts | 122° |
| 2026-05-07 20:25 | 48.10956 | 16.58239 | 614 ft | 19 kts | 145° |
| 2026-05-07 20:25 | 48.10709 | 16.58351 | 615 ft | 71 kts | 165° |
| 2026-05-07 20:25 | 48.10017 | 16.58644 | 618 ft | 132 kts | 164° |
| 2026-05-07 20:26 | 48.08992 | 16.59019 | 852 ft | 158 kts | 172° |
| 2026-05-07 20:26 | 48.07928 | 16.59422 | 1619 ft | 158 kts | 166° |
| 2026-05-07 20:26 | 48.06853 | 16.59889 | 2175 ft | 168 kts | 163° |
| 2026-05-07 20:26 | 48.05758 | 16.60775 | 2480 ft | 192 kts | 140° |
| 2026-05-07 20:27 | 48.04888 | 16.62415 | 2784 ft | 214 kts | 114° |
| 2026-05-07 20:27 | 48.04541 | 16.64641 | 3237 ft | 225 kts | 86° |
| 2026-05-07 20:27 | 48.04879 | 16.66894 | 4001 ft | 222 kts | 59° |
| 2026-05-07 20:27 | 48.05820 | 16.68668 | 4816 ft | 217 kts | 34° |
| 2026-05-07 20:28 | 48.07067 | 16.70060 | 5277 ft | 238 kts | 34° |
| 2026-05-07 20:28 | 48.08470 | 16.71601 | 5714 ft | 261 kts | 34° |
| 2026-05-07 20:28 | 48.09966 | 16.73251 | 6436 ft | 271 kts | 35° |
| 2026-05-07 20:28 | 48.11489 | 16.74940 | 7287 ft | 275 kts | 36° |
| 2026-05-07 20:29 | 48.13037 | 16.76654 | 8152 ft | 278 kts | 33° |
| 2026-05-07 20:29 | 48.14756 | 16.78008 | 9006 ft | 281 kts | 18° |
| 2026-05-07 20:29 | 48.16670 | 16.78621 | 9862 ft | 283 kts | 2° |
| 2026-05-07 20:29 | 48.18649 | 16.78436 | 10517 ft | 293 kts | 349° |
| 2026-05-07 20:30 | 48.20739 | 16.77890 | 10765 ft | 317 kts | 349° |
| 2026-05-07 20:30 | 48.22973 | 16.77288 | 11169 ft | 333 kts | 348° |
| 2026-05-07 20:30 | 48.25272 | 16.76668 | 11822 ft | 339 kts | 348° |
| 2026-05-07 20:30 | 48.27615 | 16.76038 | 12589 ft | 343 kts | 348° |
| 2026-05-07 20:31 | 48.29983 | 16.75409 | 13333 ft | 348 kts | 348° |
| 2026-05-07 20:31 | 48.32382 | 16.74791 | 14006 ft | 353 kts | 350° |
| 2026-05-07 20:31 | 48.34860 | 16.74627 | 14627 ft | 361 kts | 1° |
| 2026-05-07 20:31 | 48.37365 | 16.75171 | 15249 ft | 367 kts | 9° |
| 2026-05-07 20:32 | 48.39876 | 16.75927 | 15869 ft | 371 kts | 9° |
| 2026-05-07 20:32 | 48.42422 | 16.76693 | 16484 ft | 375 kts | 9° |
| 2026-05-07 20:32 | 48.44999 | 16.77463 | 17094 ft | 380 kts | 9° |
| 2026-05-07 20:32 | 48.47600 | 16.78235 | 17692 ft | 384 kts | 9° |
| 2026-05-07 20:33 | 48.50242 | 16.78972 | 18294 ft | 388 kts | 5° |
| 2026-05-07 20:33 | 48.52943 | 16.79186 | 18811 ft | 390 kts | 357° |
| 2026-05-07 20:33 | 48.55674 | 16.79148 | 19330 ft | 394 kts | 357° |
| 2026-05-07 20:33 | 48.58425 | 16.79105 | 19866 ft | 398 kts | 357° |
| 2026-05-07 20:34 | 48.61208 | 16.79061 | 20419 ft | 401 kts | 357° |
| 2026-05-07 20:34 | 48.64015 | 16.79023 | 20969 ft | 405 kts | 358° |
| 2026-05-07 20:34 | 48.66848 | 16.79051 | 21503 ft | 409 kts | 2° |
| 2026-05-07 20:34 | 48.69636 | 16.79756 | 22023 ft | 415 kts | 15° |
| 2026-05-07 20:35 | 48.72338 | 16.81313 | 22543 ft | 419 kts | 27° |
| 2026-05-07 20:35 | 48.74813 | 16.83669 | 23053 ft | 422 kts | 39° |
| 2026-05-07 20:35 | 48.76943 | 16.86746 | 23534 ft | 425 kts | 51° |
| 2026-05-07 20:35 | 48.78788 | 16.90261 | 23949 ft | 427 kts | 53° |
| 2026-05-07 20:36 | 48.80630 | 16.93812 | 24338 ft | 431 kts | 53° |
| 2026-05-07 20:36 | 48.82492 | 16.97399 | 24720 ft | 434 kts | 53° |
| 2026-05-07 20:36 | 48.84367 | 17.01019 | 25090 ft | 438 kts | 53° |
| 2026-05-07 20:36 | 48.86254 | 17.04670 | 25458 ft | 441 kts | 53° |
| 2026-05-07 20:37 | 48.88154 | 17.08352 | 25800 ft | 444 kts | 53° |
| 2026-05-07 20:37 | 48.90068 | 17.12065 | 26151 ft | 448 kts | 53° |
| 2026-05-07 20:37 | 48.91989 | 17.15800 | 26488 ft | 451 kts | 54° |
| 2026-05-07 20:37 | 48.93935 | 17.19584 | 26816 ft | 455 kts | 54° |
| 2026-05-07 20:38 | 48.95885 | 17.23382 | 27153 ft | 458 kts | 54° |
| 2026-05-07 20:38 | 48.97856 | 17.27225 | 27475 ft | 461 kts | 54° |
| 2026-05-07 20:38 | 48.99806 | 17.31038 | 27818 ft | 464 kts | 54° |
| 2026-05-07 20:38 | 49.01791 | 17.34931 | 28146 ft | 467 kts | 54° |
| 2026-05-07 20:39 | 49.03789 | 17.38852 | 28452 ft | 469 kts | 54° |
| 2026-05-07 20:39 | 49.05793 | 17.42788 | 28785 ft | 472 kts | 54° |
| 2026-05-07 20:39 | 49.07811 | 17.46751 | 28985 ft | 473 kts | 54° |
| 2026-05-07 20:39 | 49.09802 | 17.50662 | 29012 ft | 461 kts | 55° |
| 2026-05-07 20:40 | 49.11756 | 17.54510 | 29009 ft | 457 kts | 55° |
| 2026-05-07 20:40 | 49.15625 | 17.62159 | 29019 ft | 455 kts | 55° |
| 2026-05-07 20:41 | 49.19485 | 17.69802 | 29016 ft | 454 kts | 55° |
| 2026-05-07 20:41 | 49.23350 | 17.77482 | 29016 ft | 454 kts | 55° |
| 2026-05-07 20:42 | 49.27197 | 17.85159 | 28995 ft | 454 kts | 55° |
| 2026-05-07 20:42 | 49.31035 | 17.92823 | 29015 ft | 453 kts | 55° |
| 2026-05-07 20:43 | 49.34865 | 18.00485 | 29013 ft | 453 kts | 55° |
| 2026-05-07 20:43 | 49.38656 | 18.08116 | 29027 ft | 452 kts | 56° |
| 2026-05-07 20:44 | 49.42458 | 18.15798 | 28997 ft | 452 kts | 56° |
| 2026-05-07 20:44 | 49.46264 | 18.23488 | 28999 ft | 452 kts | 56° |
| 2026-05-07 20:44 | 49.48163 | 18.27333 | 28852 ft | 452 kts | 56° |
| 2026-05-07 20:45 | 49.50063 | 18.31184 | 28574 ft | 449 kts | 56° |
| 2026-05-07 20:45 | 49.51944 | 18.35001 | 28300 ft | 447 kts | 56° |
| 2026-05-07 20:45 | 49.53819 | 18.38810 | 28027 ft | 445 kts | 56° |
| 2026-05-07 20:45 | 49.55682 | 18.42605 | 27758 ft | 443 kts | 56° |
| 2026-05-07 20:46 | 49.57535 | 18.46387 | 27492 ft | 441 kts | 56° |
| 2026-05-07 20:46 | 49.59377 | 18.50154 | 27235 ft | 439 kts | 56° |
| 2026-05-07 20:46 | 49.61209 | 18.53907 | 26963 ft | 437 kts | 56° |
| 2026-05-07 20:46 | 49.63027 | 18.57639 | 26701 ft | 435 kts | 56° |
| 2026-05-07 20:47 | 49.64842 | 18.61362 | 26442 ft | 433 kts | 56° |
| 2026-05-07 20:47 | 49.66703 | 18.64937 | 26189 ft | 433 kts | 50° |
| 2026-05-07 20:47 | 49.68925 | 18.68090 | 25926 ft | 435 kts | 39° |
| 2026-05-07 20:47 | 49.71456 | 18.70647 | 25686 ft | 435 kts | 29° |
| 2026-05-07 20:48 | 49.74213 | 18.72532 | 25446 ft | 434 kts | 19° |
| 2026-05-07 20:48 | 49.77123 | 18.73752 | 25196 ft | 433 kts | 13° |
| 2026-05-07 20:48 | 49.80049 | 18.74821 | 24954 ft | 431 kts | 13° |
| 2026-05-07 20:48 | 49.82962 | 18.75918 | 24710 ft | 431 kts | 16° |
| 2026-05-07 20:49 | 49.85703 | 18.77747 | 24470 ft | 428 kts | 34° |
| 2026-05-07 20:49 | 49.87990 | 18.80619 | 24234 ft | 422 kts | 51° |
| 2026-05-07 20:49 | 49.89689 | 18.84258 | 24000 ft | 413 kts | 66° |
| 2026-05-07 20:49 | 49.90712 | 18.88354 | 23763 ft | 402 kts | 82° |
| 2026-05-07 20:50 | 49.91043 | 18.92570 | 23313 ft | 389 kts | 96° |
| 2026-05-07 20:50 | 49.90838 | 18.96693 | 22960 ft | 378 kts | 101° |
| 2026-05-07 20:50 | 49.90603 | 19.00685 | 22817 ft | 365 kts | 101° |
| 2026-05-07 20:50 | 49.90380 | 19.04566 | 22497 ft | 358 kts | 100° |
| 2026-05-07 20:51 | 49.90161 | 19.08392 | 22055 ft | 356 kts | 100° |
| 2026-05-07 20:51 | 49.89942 | 19.12212 | 21564 ft | 355 kts | 100° |
| 2026-05-07 20:51 | 49.89723 | 19.16018 | 21143 ft | 352 kts | 100° |
| 2026-05-07 20:51 | 49.89502 | 19.19806 | 20657 ft | 352 kts | 99° |
| 2026-05-07 20:52 | 49.89281 | 19.23559 | 20198 ft | 351 kts | 99° |
| 2026-05-07 20:52 | 49.89321 | 19.27353 | 19852 ft | 352 kts | 86° |
| 2026-05-07 20:52 | 49.89888 | 19.31052 | 19472 ft | 354 kts | 72° |
| 2026-05-07 20:52 | 49.90857 | 19.34569 | 19070 ft | 354 kts | 69° |
| 2026-05-07 20:53 | 49.91839 | 19.38052 | 18690 ft | 352 kts | 69° |
| 2026-05-07 20:53 | 49.92812 | 19.41526 | 18326 ft | 350 kts | 69° |
| 2026-05-07 20:53 | 49.93776 | 19.44982 | 17904 ft | 348 kts | 69° |
| 2026-05-07 20:53 | 49.94701 | 19.48440 | 17420 ft | 347 kts | 74° |
| 2026-05-07 20:54 | 49.95277 | 19.52054 | 17006 ft | 344 kts | 81° |
| 2026-05-07 20:54 | 49.95753 | 19.55631 | 16632 ft | 342 kts | 81° |
| 2026-05-07 20:54 | 49.96238 | 19.59232 | 16276 ft | 339 kts | 81° |
| 2026-05-07 20:54 | 49.96722 | 19.62807 | 15924 ft | 337 kts | 81° |
| 2026-05-07 20:55 | 49.97201 | 19.66341 | 15394 ft | 332 kts | 81° |
| 2026-05-07 20:55 | 49.97673 | 19.69836 | 14764 ft | 329 kts | 80° |
| 2026-05-07 20:55 | 49.98139 | 19.73286 | 14154 ft | 325 kts | 80° |
| 2026-05-07 20:55 | 49.98599 | 19.76704 | 13526 ft | 321 kts | 80° |
| 2026-05-07 20:56 | 49.99053 | 19.80083 | 12850 ft | 318 kts | 79° |
| 2026-05-07 20:56 | 49.99506 | 19.83427 | 12179 ft | 314 kts | 79° |
| 2026-05-07 20:56 | 49.99953 | 19.86727 | 11662 ft | 312 kts | 79° |
| 2026-05-07 20:56 | 50.00399 | 19.90033 | 11245 ft | 312 kts | 78° |
| 2026-05-07 20:57 | 50.00836 | 19.93273 | 11048 ft | 298 kts | 78° |
| 2026-05-07 20:57 | 50.01248 | 19.96318 | 10883 ft | 279 kts | 78° |
| 2026-05-07 20:57 | 50.01644 | 19.99248 | 10632 ft | 274 kts | 78° |
| 2026-05-07 20:57 | 50.02034 | 20.02136 | 10361 ft | 272 kts | 78° |
| 2026-05-07 20:58 | 50.02425 | 20.05017 | 9993 ft | 273 kts | 78° |
| 2026-05-07 20:58 | 50.02816 | 20.07894 | 9637 ft | 272 kts | 78° |
| 2026-05-07 20:58 | 50.03208 | 20.10767 | 9333 ft | 269 kts | 78° |
| 2026-05-07 20:58 | 50.03592 | 20.13599 | 8995 ft | 268 kts | 78° |
| 2026-05-07 20:59 | 50.03976 | 20.16432 | 8633 ft | 267 kts | 78° |
| 2026-05-07 20:59 | 50.04362 | 20.19261 | 8260 ft | 267 kts | 76° |
| 2026-05-07 20:59 | 50.05138 | 20.21826 | 7914 ft | 261 kts | 46° |
| 2026-05-07 20:59 | 50.06591 | 20.23384 | 7495 ft | 252 kts | 14° |
| 2026-05-07 21:00 | 50.07714 | 20.23680 | 7112 ft | 245 kts | 354° |
| 2026-05-07 21:00 | 50.09925 | 20.23071 | 6335 ft | 241 kts | 344° |
| 2026-05-07 21:00 | 50.11517 | 20.22452 | 5787 ft | 235 kts | 333° |
| 2026-05-07 21:00 | 50.12746 | 20.20897 | 5336 ft | 237 kts | 301° |
| 2026-05-07 21:01 | 50.13210 | 20.18387 | 4926 ft | 249 kts | 268° |
| 2026-05-07 21:01 | 50.12934 | 20.15783 | 4759 ft | 237 kts | 258° |
| 2026-05-07 21:01 | 50.12579 | 20.13419 | 4667 ft | 211 kts | 258° |
| 2026-05-07 21:01 | 50.12280 | 20.11297 | 4571 ft | 193 kts | 259° |
| 2026-05-07 21:02 | 50.12003 | 20.09270 | 4499 ft | 190 kts | 259° |
| 2026-05-07 21:02 | 50.11826 | 20.07974 | 4395 ft | 179 kts | 259° |
| 2026-05-07 21:02 | 50.11574 | 20.06120 | 4168 ft | 172 kts | 259° |
| 2026-05-07 21:02 | 50.11325 | 20.04292 | 3942 ft | 173 kts | 259° |
| 2026-05-07 21:03 | 50.11074 | 20.02450 | 3717 ft | 174 kts | 259° |
| 2026-05-07 21:03 | 50.10821 | 20.00603 | 3490 ft | 174 kts | 259° |
| 2026-05-07 21:03 | 50.10569 | 19.98759 | 3263 ft | 174 kts | 259° |
| 2026-05-07 21:03 | 50.10315 | 19.96908 | 3017 ft | 175 kts | 259° |
| 2026-05-07 21:04 | 50.10061 | 19.95060 | 2792 ft | 174 kts | 259° |
| 2026-05-07 21:04 | 50.09812 | 19.93246 | 2552 ft | 165 kts | 258° |
| 2026-05-07 21:04 | 50.09585 | 19.91594 | 2359 ft | 149 kts | 259° |
| 2026-05-07 21:04 | 50.09373 | 19.90056 | 2153 ft | 143 kts | 258° |
| 2026-05-07 21:05 | 50.09166 | 19.88553 | 1947 ft | 141 kts | 259° |
| 2026-05-07 21:05 | 50.08960 | 19.87060 | 1755 ft | 141 kts | 259° |
| 2026-05-07 21:05 | 50.08757 | 19.85580 | 1565 ft | 139 kts | 259° |
| 2026-05-07 21:05 | 50.08551 | 19.84107 | 1360 ft | 140 kts | 259° |
| 2026-05-07 21:06 | 50.08345 | 19.82627 | 1167 ft | 141 kts | 259° |
| 2026-05-07 21:06 | 50.08138 | 19.81132 | 989 ft | 141 kts | 260° |
| 2026-05-07 21:06 | 50.07935 | 19.79630 | 802 ft | 141 kts | 260° |
| 2026-05-07 21:06 | 50.07762 | 19.78391 | 793 ft | 79 kts | 258° |
| 2026-05-07 21:07 | 50.07692 | 19.77886 | 789 ft | 38 kts | 258° |
| 2026-05-07 21:07 | 50.07636 | 19.77489 | 791 ft | 37 kts | 258° |
| 2026-05-07 21:07 | 50.07584 | 19.77113 | 797 ft | 31 kts | 257° |
| 2026-05-07 21:07 | 50.07551 | 19.76909 | 798 ft | 13 kts | 245° |
| 2026-05-07 21:08 | 50.07482 | 19.76855 | 796 ft | 13 kts | 176° |
| 2026-05-07 21:08 | 50.07368 | 19.76889 | 791 ft | 16 kts | 167° |
| 2026-05-07 21:08 | 50.07316 | 19.77017 | 791 ft | 18 kts | 81° |
| 2026-05-07 21:08 | 50.07346 | 19.77230 | 791 ft | 21 kts | 77° |
| 2026-05-07 21:09 | 50.07378 | 19.77455 | 791 ft | 22 kts | 78° |
| 2026-05-07 21:09 | 50.07410 | 19.77699 | 791 ft | 24 kts | 78° |
| 2026-05-07 21:09 | 50.07446 | 19.77956 | 791 ft | 25 kts | 77° |
| 2026-05-07 21:09 | 50.07485 | 19.78224 | 791 ft | 26 kts | 77° |
| 2026-05-07 21:10 | 50.07517 | 19.78491 | 791 ft | 25 kts | 79° |
| 2026-05-07 21:10 | 50.07558 | 19.78756 | 791 ft | 25 kts | 76° |
| 2026-05-07 21:10 | 50.07597 | 19.79025 | 791 ft | 25 kts | 79° |
| 2026-05-07 21:10 | 50.07631 | 19.79290 | 791 ft | 24 kts | 77° |
| 2026-05-07 21:11 | 50.07662 | 19.79505 | 791 ft | 21 kts | 77° |
| 2026-05-07 21:11 | 50.07693 | 19.79728 | 791 ft | 18 kts | 77° |
| 2026-05-07 21:11 | 50.07607 | 19.79901 | 791 ft | 12 kts | 168° |
| 2026-05-07 21:12 | 50.07535 | 19.79931 | 791 ft | 10 kts | 149° |
| 2026-05-07 21:12 | 50.07518 | 19.80024 | 791 ft | 10 kts | 79° |
| 2026-05-07 21:12 | 50.07524 | 19.80111 | 791 ft | 5 kts | 112° |
| 2026-05-07 21:12 | 50.07500 | 19.80134 | 791 ft | 3 kts | 159° |
| 2026-05-07 21:13 | 50.07485 | 19.80140 | 791 ft | 2 kts | 166° |
| 2026-05-07 21:13 | 50.07481 | 19.80141 | 791 ft | 0 kts | 166° |